createdAt,value
2023-03-06T00:04:41.361Z,99169.40
2023-03-06T00:09:43.065Z,99165.40
2023-03-06T00:14:44.907Z,99159.00
2023-03-06T00:19:46.790Z,99164.00
2023-03-06T00:24:48.602Z,99164.60
2023-03-06T00:29:57.814Z,99162.60
2023-03-06T00:34:59.583Z,99155.00
2023-03-06T00:40:01.566Z,99155.80
2023-03-06T00:45:04.900Z,99156.20
2023-03-06T00:50:08.094Z,99151.20
2023-03-06T00:55:10.695Z,99149.00
2023-03-06T01:00:14.320Z,99149.80
2023-03-06T01:05:16.273Z,99149.60
2023-03-06T01:10:18.283Z,99147.00
2023-03-06T01:15:21.357Z,99142.00
2023-03-06T01:20:23.349Z,99143.00
2023-03-06T01:25:26.034Z,99141.80
2023-03-06T01:30:27.908Z,99138.00
2023-03-06T01:35:29.738Z,99139.20
2023-03-06T01:40:34.019Z,99137.40
2023-03-06T01:45:35.724Z,99138.00
2023-03-06T01:50:37.880Z,99133.80
2023-03-06T01:55:40.067Z,99134.40
2023-03-06T02:00:41.852Z,99131.40
2023-03-06T02:05:44.297Z,99124.80
2023-03-06T02:10:58.912Z,99121.40
2023-03-06T02:16:01.923Z,99119.20
2023-03-06T02:21:09.234Z,99117.40
2023-03-06T02:26:12.737Z,99116.80
2023-03-06T02:31:28.993Z,99126.20
2023-03-06T02:36:34.744Z,99119.60
2023-03-06T02:41:36.491Z,99117.40
2023-03-06T02:46:38.176Z,99115.60
2023-03-06T02:51:39.936Z,99110.00
2023-03-06T02:56:41.717Z,99111.40
2023-03-06T03:01:43.545Z,99111.80
2023-03-06T03:06:45.290Z,99107.00
2023-03-06T03:11:46.931Z,99111.20
2023-03-06T03:16:48.606Z,99105.40
2023-03-06T03:21:50.276Z,99103.60
2023-03-06T03:26:52.361Z,99106.80
2023-03-06T03:31:54.135Z,99100.80
2023-03-06T03:36:55.913Z,99097.00
2023-03-06T03:41:57.588Z,99097.40
2023-03-06T03:46:59.279Z,99101.40
2023-03-06T03:52:00.936Z,99101.60
2023-03-06T03:57:03.214Z,99094.00
2023-03-06T04:02:05.166Z,99091.80
2023-03-06T04:07:06.869Z,99091.40
2023-03-06T04:12:09.057Z,99088.40
2023-03-06T04:17:10.831Z,99095.60
2023-03-06T04:22:12.704Z,99090.80
2023-03-06T04:27:14.399Z,99082.60
2023-03-06T04:32:16.178Z,99083.80
2023-03-06T04:37:24.300Z,99075.20
2023-03-06T04:42:26.057Z,99074.60
2023-03-06T04:47:27.827Z,99075.40
2023-03-06T04:52:29.733Z,99076.00
2023-03-06T04:57:31.449Z,99070.40
2023-03-06T05:02:33.549Z,99068.40
2023-03-06T05:07:35.552Z,99067.60
2023-03-06T05:12:38.952Z,99070.00
2023-03-06T05:17:41.248Z,99081.00
2023-03-06T05:22:44.040Z,99071.80
2023-03-06T05:27:46.343Z,99073.40
2023-03-06T05:32:49.203Z,99069.80
2023-03-06T05:37:51.319Z,99074.40
2023-03-06T05:42:53.318Z,99076.60
2023-03-06T05:47:55.275Z,99077.60
2023-03-06T05:52:57.057Z,99079.80
2023-03-06T05:57:58.880Z,99074.80
2023-03-06T06:03:01.940Z,99074.40
2023-03-06T06:08:03.812Z,99079.40
2023-03-06T06:13:06.103Z,99081.80
2023-03-06T06:18:07.803Z,99085.40
2023-03-06T06:23:12.647Z,99092.20
2023-03-06T06:28:14.493Z,99091.60
2023-03-06T06:33:16.275Z,99096.40
2023-03-06T06:38:19.472Z,99089.60
2023-03-06T06:43:21.219Z,99087.00
2023-03-06T06:48:23.080Z,99089.20
2023-03-06T06:53:27.404Z,99086.80
2023-03-06T06:58:29.754Z,99084.80
2023-03-06T07:03:31.654Z,99090.20
2023-03-06T07:08:34.641Z,99093.60
2023-03-06T07:13:36.408Z,99094.00
2023-03-06T07:18:38.283Z,99089.60
2023-03-06T07:23:40.772Z,99089.20
2023-03-06T07:28:52.035Z,99086.00
2023-03-06T07:33:55.281Z,99086.60
2023-03-06T07:38:56.966Z,99086.20
2023-03-06T07:43:59.550Z,99085.00
2023-03-06T07:49:01.350Z,99087.80
2023-03-06T07:54:03.291Z,99093.80
2023-03-06T07:59:04.985Z,99097.40
2023-03-06T08:04:07.096Z,99096.60
2023-03-06T08:09:08.940Z,99095.80
2023-03-06T08:14:10.846Z,99094.40
2023-03-06T08:19:12.602Z,99098.80
2023-03-06T08:24:16.332Z,99096.80
2023-03-06T08:29:18.094Z,99101.00
2023-03-06T08:34:26.509Z,99094.40
2023-03-06T08:39:28.392Z,99098.00
2023-03-06T08:44:30.148Z,99093.60
2023-03-06T08:49:32.557Z,99096.80
2023-03-06T08:54:36.195Z,99101.20
2023-03-06T08:59:38.159Z,99099.60
2023-03-06T09:04:40.057Z,99097.20
2023-03-06T09:09:42.217Z,99095.80
2023-03-06T09:14:44.017Z,99094.40
2023-03-06T09:19:45.769Z,99099.40
2023-03-06T09:24:47.548Z,99092.40
2023-03-06T09:29:49.526Z,99092.00
2023-03-06T09:34:51.303Z,99094.00
2023-03-06T09:39:53.184Z,99090.60
2023-03-06T09:44:58.731Z,99090.40
2023-03-06T09:50:34.157Z,99089.80
2023-03-06T09:55:39.739Z,99089.60
2023-03-06T10:01:03.152Z,99083.60
2023-03-06T10:06:18.024Z,99075.40
2023-03-06T10:11:32.531Z,99069.20
2023-03-06T10:16:34.382Z,99063.60
2023-03-06T10:22:00.523Z,99058.20
2023-03-06T10:27:42.898Z,99061.20
2023-03-06T10:32:59.213Z,99060.20
2023-03-06T10:38:22.488Z,99060.40
2023-03-06T10:43:24.431Z,99045.60
2023-03-06T10:48:32.240Z,99048.60
2023-03-06T10:53:34.329Z,99049.20
2023-03-06T10:58:35.999Z,99047.00
2023-03-06T11:03:38.019Z,99045.40
2023-03-06T11:08:43.912Z,99040.60
2023-03-06T11:13:58.204Z,99038.80
2023-03-06T11:19:04.998Z,99030.60
2023-03-06T11:24:18.270Z,99033.80
2023-03-06T11:29:48.965Z,99027.00
2023-03-06T11:35:28.514Z,99030.00
2023-03-06T11:40:42.787Z,99026.80
2023-03-06T11:45:58.845Z,99028.60
2023-03-06T11:51:16.917Z,99028.80
2023-03-06T11:56:18.576Z,99025.20
2023-03-06T12:01:54.695Z,99020.20
2023-03-06T12:07:24.408Z,99025.60
2023-03-06T12:12:41.537Z,99018.80
2023-03-06T12:18:21.734Z,99019.00
2023-03-06T12:23:45.487Z,99018.80
2023-03-06T12:29:10.506Z,99014.00
2023-03-06T12:34:36.764Z,99016.60
2023-03-06T12:40:09.580Z,99024.60
2023-03-06T12:45:23.931Z,99023.20
2023-03-06T12:50:27.254Z,99027.00
2023-03-06T12:55:45.716Z,99025.80
2023-03-06T13:01:11.187Z,99018.60
2023-03-06T13:06:49.870Z,99016.60
2023-03-06T13:12:04.767Z,99019.20
2023-03-06T13:17:37.575Z,99012.60
2023-03-06T13:22:44.873Z,99008.80
2023-03-06T13:27:53.212Z,99008.20
2023-03-06T13:32:55.999Z,99009.60
2023-03-06T13:37:59.929Z,99006.80
2023-03-06T13:43:07.952Z,98999.40
2023-03-06T13:48:46.004Z,98999.20
2023-03-06T13:54:31.399Z,98992.20
2023-03-06T14:00:08.209Z,98998.40
2023-03-06T14:05:16.527Z,98993.40
2023-03-06T14:10:25.745Z,98988.80
2023-03-06T14:15:45.995Z,98992.20
2023-03-06T14:20:56.741Z,98992.60
2023-03-06T14:26:18.212Z,98991.40
2023-03-06T14:31:27.690Z,98991.80
2023-03-06T14:36:29.808Z,98989.00
2023-03-06T14:41:36.145Z,98984.80
2023-03-06T14:46:38.004Z,98983.80
2023-03-06T14:51:47.990Z,98980.00
2023-03-06T14:57:13.065Z,98983.40
2023-03-06T15:02:22.270Z,98977.60
2023-03-06T15:07:31.969Z,98983.40
2023-03-06T15:12:36.656Z,98976.00
2023-03-06T15:17:48.745Z,98974.20
2023-03-06T15:22:50.606Z,98979.40
2023-03-06T15:27:59.912Z,98984.20
2023-03-06T15:33:19.376Z,98982.40
2023-03-06T15:38:42.419Z,98984.20
2023-03-06T15:43:44.299Z,98981.00
2023-03-06T15:49:03.430Z,98984.60
2023-03-06T15:54:12.368Z,98982.20
2023-03-06T15:59:32.562Z,98983.80
2023-03-06T16:04:34.515Z,98979.60
2023-03-06T16:09:36.697Z,98986.20
2023-03-06T16:14:39.301Z,98982.40
2023-03-06T16:19:41.595Z,98987.80
2023-03-06T16:24:43.489Z,98986.60
2023-03-06T16:29:45.764Z,98985.60
2023-03-06T16:34:47.618Z,98986.80
2023-03-06T16:39:49.489Z,98979.80
2023-03-06T16:44:51.340Z,98978.60
2023-03-06T16:49:57.379Z,98977.60
2023-03-06T16:54:59.223Z,98981.80
2023-03-06T17:00:01.406Z,98980.60
2023-03-06T17:05:05.310Z,98978.80
2023-03-06T17:10:12.568Z,98980.60
2023-03-06T17:15:14.310Z,98992.00
2023-03-06T17:20:16.098Z,98991.20
2023-03-06T17:25:17.961Z,98989.00
2023-03-06T17:30:20.042Z,98990.40
2023-03-06T17:35:21.862Z,98994.60
2023-03-06T17:40:25.125Z,98997.00
2023-03-06T17:45:29.075Z,98995.40
2023-03-06T17:50:31.036Z,98990.80
2023-03-06T17:55:32.908Z,98995.20
2023-03-06T18:00:35.612Z,98992.60
2023-03-06T18:05:38.406Z,98994.80
2023-03-06T18:10:42.742Z,98992.40
2023-03-06T18:15:44.549Z,98991.60
2023-03-06T18:20:47.273Z,98995.00
2023-03-06T18:25:50.118Z,98993.40
2023-03-06T18:30:51.810Z,98992.40
2023-03-06T18:35:53.688Z,98995.80
2023-03-06T18:40:55.648Z,98996.40
2023-03-06T18:45:57.808Z,99000.80
2023-03-06T18:51:06.308Z,99003.40
2023-03-06T18:56:15.721Z,99003.20
2023-03-06T19:01:18.241Z,99001.20
2023-03-06T19:06:20.301Z,98996.00
2023-03-06T19:11:22.073Z,98998.80
2023-03-06T19:16:30.389Z,99002.40
2023-03-06T19:21:32.391Z,98988.60
2023-03-06T19:26:34.058Z,98995.40
2023-03-06T19:31:35.970Z,98998.80
2023-03-06T19:36:40.165Z,98995.60
2023-03-06T19:41:41.889Z,99001.60
2023-03-06T19:46:43.699Z,98991.20
2023-03-06T19:51:45.727Z,98995.00
2023-03-06T19:56:47.385Z,98996.60
2023-03-06T20:01:49.188Z,98994.40
2023-03-06T20:06:51.222Z,99002.80
2023-03-06T20:11:53.231Z,99000.20
2023-03-06T20:16:54.977Z,98992.80
2023-03-06T20:21:56.672Z,98995.80
2023-03-06T20:26:59.058Z,98997.80
2023-03-06T20:32:01.117Z,98999.20
2023-03-06T20:37:03.099Z,98996.20
2023-03-06T20:42:05.589Z,99000.40
2023-03-06T20:47:08.592Z,98994.80
2023-03-06T20:52:10.487Z,98997.40
2023-03-06T20:57:12.570Z,99003.40
2023-03-06T21:02:14.867Z,99004.20
2023-03-06T21:07:17.072Z,99000.00
2023-03-06T21:12:18.903Z,99001.60
2023-03-06T21:17:20.790Z,99000.00
2023-03-06T21:22:22.658Z,98999.60
2023-03-06T21:27:24.437Z,99001.00
2023-03-06T21:32:26.293Z,98995.60
2023-03-06T21:37:28.320Z,98999.20
2023-03-06T21:42:29.960Z,98993.40
2023-03-06T21:47:37.271Z,98996.80
2023-03-06T21:52:39.661Z,98998.40
2023-03-06T21:57:42.153Z,99006.40
2023-03-06T22:02:44.147Z,99003.40
2023-03-06T22:07:46.014Z,99005.00
2023-03-06T22:12:47.705Z,99004.80
2023-03-06T22:17:49.378Z,99007.60
2023-03-06T22:22:51.232Z,99002.80
2023-03-06T22:27:52.897Z,99004.00
2023-03-06T22:32:54.713Z,99000.00
2023-03-06T22:37:58.187Z,98999.40
2023-03-06T22:42:59.869Z,98995.00
2023-03-06T22:48:10.637Z,98991.20
2023-03-06T22:53:13.037Z,98996.80
2023-03-06T22:58:14.813Z,98995.60
2023-03-06T23:03:16.586Z,98996.40
2023-03-06T23:08:18.365Z,98990.60
2023-03-06T23:13:20.342Z,98990.80
2023-03-06T23:18:22.224Z,98992.40
2023-03-06T23:23:25.671Z,98989.20
2023-03-06T23:28:28.328Z,98996.20
2023-03-06T23:33:30.118Z,98993.40
2023-03-06T23:38:32.600Z,98994.00
2023-03-06T23:43:34.887Z,98988.80
2023-03-06T23:48:40.000Z,98989.40
2023-03-06T23:53:43.864Z,98995.20
2023-03-06T23:58:45.752Z,98993.60
